sensor_id;sensor_type;location;lat;lon;timestamp;pressure;altitude;pressure_sealevel;temperature;humidity
75549;BME280;64133;56.002;37.208;2023-09-19T00:02:11;99613.19;;;9.35;82.83
75549;BME280;64133;56.002;37.208;2023-09-19T00:07:16;99609.80;;;9.45;82.80
75549;BME280;64133;56.002;37.208;2023-09-19T00:12:21;99617.34;;;9.50;82.55
75549;BME280;64133;56.002;37.208;2023-09-19T00:17:26;99619.92;;;9.44;82.28
75549;BME280;64133;56.002;37.208;2023-09-19T00:22:30;99610.06;;;9.29;82.35
75549;BME280;64133;56.002;37.208;2023-09-19T00:27:35;99605.12;;;9.19;82.33
75549;BME280;64133;56.002;37.208;2023-09-19T00:32:39;99604.61;;;9.14;82.34
75549;BME280;64133;56.002;37.208;2023-09-19T00:37:44;99607.45;;;9.11;82.31
75549;BME280;64133;56.002;37.208;2023-09-19T00:42:49;99610.00;;;9.00;82.14
75549;BME280;64133;56.002;37.208;2023-09-19T00:47:54;99603.19;;;8.97;82.61
75549;BME280;64133;56.002;37.208;2023-09-19T00:52:58;99609.64;;;8.99;82.31
75549;BME280;64133;56.002;37.208;2023-09-19T00:58:03;99602.59;;;8.99;82.21
75549;BME280;64133;56.002;37.208;2023-09-19T01:03:08;99597.64;;;8.89;82.46
75549;BME280;64133;56.002;37.208;2023-09-19T01:08:12;99600.00;;;8.87;82.50
75549;BME280;64133;56.002;37.208;2023-09-19T01:13:19;99596.14;;;8.98;82.18
75549;BME280;64133;56.002;37.208;2023-09-19T01:18:27;99594.47;;;8.97;81.86
75549;BME280;64133;56.002;37.208;2023-09-19T01:23:32;99597.75;;;9.06;82.08
75549;BME280;64133;56.002;37.208;2023-09-19T01:28:53;99599.84;;;9.01;82.06
75549;BME280;64133;56.002;37.208;2023-09-19T01:33:59;99593.58;;;8.91;82.18
75549;BME280;64133;56.002;37.208;2023-09-19T01:39:04;99589.07;;;8.93;82.70
75549;BME280;64133;56.002;37.208;2023-09-19T01:44:11;99587.79;;;8.80;82.42
75549;BME280;64133;56.002;37.208;2023-09-19T01:49:22;99578.11;;;8.62;82.84
75549;BME280;64133;56.002;37.208;2023-09-19T01:54:28;99569.13;;;8.59;83.04
75549;BME280;64133;56.002;37.208;2023-09-19T01:59:35;99575.08;;;8.43;83.79
75549;BME280;64133;56.002;37.208;2023-09-19T02:04:38;99575.69;;;8.34;84.00
75549;BME280;64133;56.002;37.208;2023-09-19T02:09:43;99571.94;;;8.38;84.33
75549;BME280;64133;56.002;37.208;2023-09-19T02:14:47;99562.62;;;8.52;84.17
75549;BME280;64133;56.002;37.208;2023-09-19T02:19:52;99554.53;;;8.55;83.68
75549;BME280;64133;56.002;37.208;2023-09-19T02:24:57;99552.87;;;8.54;83.54
75549;BME280;64133;56.002;37.208;2023-09-19T02:30:03;99549.13;;;8.51;83.90
75549;BME280;64133;56.002;37.208;2023-09-19T02:35:09;99552.87;;;8.54;83.75
75549;BME280;64133;56.002;37.208;2023-09-19T02:40:15;99557.73;;;8.53;84.02
75549;BME280;64133;56.002;37.208;2023-09-19T02:45:23;99551.73;;;8.64;83.80
75549;BME280;64133;56.002;37.208;2023-09-19T02:50:28;99555.28;;;8.75;83.59
75549;BME280;64133;56.002;37.208;2023-09-19T02:55:32;99547.91;;;8.80;83.50
75549;BME280;64133;56.002;37.208;2023-09-19T03:00:37;99551.61;;;8.65;83.48
75549;BME280;64133;56.002;37.208;2023-09-19T03:05:42;99549.67;;;8.62;83.62
75549;BME280;64133;56.002;37.208;2023-09-19T03:10:48;99552.78;;;8.61;83.77
75549;BME280;64133;56.002;37.208;2023-09-19T03:15:55;99557.94;;;8.81;83.84
75549;BME280;64133;56.002;37.208;2023-09-19T03:20:59;99559.80;;;8.73;83.81
75549;BME280;64133;56.002;37.208;2023-09-19T03:26:04;99552.89;;;8.78;83.71
75549;BME280;64133;56.002;37.208;2023-09-19T03:31:09;99547.16;;;8.78;83.88
75549;BME280;64133;56.002;37.208;2023-09-19T03:36:14;99550.92;;;8.87;83.57
75549;BME280;64133;56.002;37.208;2023-09-19T03:41:19;99546.64;;;8.92;83.18
75549;BME280;64133;56.002;37.208;2023-09-19T03:46:23;99547.60;;;8.91;83.59
75549;BME280;64133;56.002;37.208;2023-09-19T03:51:28;99540.08;;;8.92;83.44
75549;BME280;64133;56.002;37.208;2023-09-19T03:56:33;99540.78;;;9.06;83.36
75549;BME280;64133;56.002;37.208;2023-09-19T04:01:37;99535.36;;;8.97;83.50
75549;BME280;64133;56.002;37.208;2023-09-19T04:06:42;99531.12;;;9.13;83.19
75549;BME280;64133;56.002;37.208;2023-09-19T04:11:46;99528.56;;;9.29;82.97
75549;BME280;64133;56.002;37.208;2023-09-19T04:16:51;99528.16;;;9.23;82.62
75549;BME280;64133;56.002;37.208;2023-09-19T04:21:57;99527.11;;;9.25;83.19
75549;BME280;64133;56.002;37.208;2023-09-19T04:27:01;99522.19;;;9.15;82.95
75549;BME280;64133;56.002;37.208;2023-09-19T04:32:07;99521.39;;;9.31;83.07
75549;BME280;64133;56.002;37.208;2023-09-19T04:37:11;99505.39;;;9.35;82.85
75549;BME280;64133;56.002;37.208;2023-09-19T04:42:16;99509.12;;;9.43;82.84
75549;BME280;64133;56.002;37.208;2023-09-19T04:47:21;99501.91;;;9.64;82.25
75549;BME280;64133;56.002;37.208;2023-09-19T04:52:26;99492.60;;;9.71;82.28
75549;BME280;64133;56.002;37.208;2023-09-19T04:57:30;99500.13;;;9.92;81.87
75549;BME280;64133;56.002;37.208;2023-09-19T05:02:36;99502.16;;;9.77;82.11
75549;BME280;64133;56.002;37.208;2023-09-19T05:07:40;99506.84;;;9.85;82.14
75549;BME280;64133;56.002;37.208;2023-09-19T05:12:45;99504.92;;;9.81;82.33
75549;BME280;64133;56.002;37.208;2023-09-19T05:17:50;99498.59;;;9.84;82.20
75549;BME280;64133;56.002;37.208;2023-09-19T05:23:00;99502.44;;;10.02;82.01
75549;BME280;64133;56.002;37.208;2023-09-19T05:28:05;99489.75;;;10.52;81.05
75549;BME280;64133;56.002;37.208;2023-09-19T05:33:10;99497.05;;;10.60;80.63
75549;BME280;64133;56.002;37.208;2023-09-19T05:38:15;99482.48;;;10.45;80.85
75549;BME280;64133;56.002;37.208;2023-09-19T05:43:19;99487.20;;;10.62;81.45
75549;BME280;64133;56.002;37.208;2023-09-19T05:48:24;99485.72;;;11.24;79.88
75549;BME280;64133;56.002;37.208;2023-09-19T05:53:29;99478.52;;;11.47;78.75
75549;BME280;64133;56.002;37.208;2023-09-19T05:58:34;99479.38;;;11.83;78.26
75549;BME280;64133;56.002;37.208;2023-09-19T06:03:38;99488.83;;;12.07;77.18
75549;BME280;64133;56.002;37.208;2023-09-19T06:08:43;99481.91;;;12.16;76.88
75549;BME280;64133;56.002;37.208;2023-09-19T06:13:48;99494.05;;;12.13;76.85
75549;BME280;64133;56.002;37.208;2023-09-19T06:18:53;99488.45;;;11.70;78.08
75549;BME280;64133;56.002;37.208;2023-09-19T06:23:58;99466.86;;;12.47;77.19
75549;BME280;64133;56.002;37.208;2023-09-19T06:29:05;99467.55;;;12.49;76.23
75549;BME280;64133;56.002;37.208;2023-09-19T06:34:10;99468.11;;;12.87;75.18
75549;BME280;64133;56.002;37.208;2023-09-19T06:39:15;99471.19;;;12.57;76.61
75549;BME280;64133;56.002;37.208;2023-09-19T06:44:20;99474.87;;;12.36;77.06
75549;BME280;64133;56.002;37.208;2023-09-19T06:49:25;99468.41;;;12.94;76.86
75549;BME280;64133;56.002;37.208;2023-09-19T06:54:29;99473.27;;;13.18;75.80
75549;BME280;64133;56.002;37.208;2023-09-19T06:59:34;99470.06;;;13.53;74.36
75549;BME280;64133;56.002;37.208;2023-09-19T07:04:41;99456.55;;;13.79;74.83
75549;BME280;64133;56.002;37.208;2023-09-19T07:09:46;99454.03;;;14.84;72.41
75549;BME280;64133;56.002;37.208;2023-09-19T07:14:50;99458.28;;;14.36;71.66
75549;BME280;64133;56.002;37.208;2023-09-19T07:19:55;99448.22;;;15.38;71.54
75549;BME280;64133;56.002;37.208;2023-09-19T07:25:00;99453.26;;;14.56;71.47
75549;BME280;64133;56.002;37.208;2023-09-19T07:30:06;99461.70;;;14.04;73.14
75549;BME280;64133;56.002;37.208;2023-09-19T07:35:11;99457.52;;;13.65;74.32
75549;BME280;64133;56.002;37.208;2023-09-19T07:40:16;99462.86;;;13.92;74.30
75549;BME280;64133;56.002;37.208;2023-09-19T07:45:21;99469.36;;;13.94;74.43
75549;BME280;64133;56.002;37.208;2023-09-19T07:50:26;99472.73;;;14.00;74.43
75549;BME280;64133;56.002;37.208;2023-09-19T07:55:30;99461.21;;;14.05;74.85
75549;BME280;64133;56.002;37.208;2023-09-19T08:00:36;99451.83;;;13.97;74.88
75549;BME280;64133;56.002;37.208;2023-09-19T08:05:42;99454.48;;;13.97;74.68
75549;BME280;64133;56.002;37.208;2023-09-19T08:10:51;99442.16;;;13.92;74.86
75549;BME280;64133;56.002;37.208;2023-09-19T08:15:51;99435.31;;;13.99;74.81
75549;BME280;64133;56.002;37.208;2023-09-19T08:20:56;99430.25;;;13.92;74.88
75549;BME280;64133;56.002;37.208;2023-09-19T08:26:01;99449.18;;;13.97;75.04
75549;BME280;64133;56.002;37.208;2023-09-19T08:31:07;99433.94;;;13.95;75.40
75549;BME280;64133;56.002;37.208;2023-09-19T08:36:12;99432.77;;;13.93;75.44
75549;BME280;64133;56.002;37.208;2023-09-19T08:41:16;99439.41;;;13.83;76.27
75549;BME280;64133;56.002;37.208;2023-09-19T08:46:21;99448.67;;;13.83;76.21
75549;BME280;64133;56.002;37.208;2023-09-19T08:51:26;99441.12;;;14.12;76.63
75549;BME280;64133;56.002;37.208;2023-09-19T08:56:31;99423.06;;;13.98;76.51
75549;BME280;64133;56.002;37.208;2023-09-19T09:01:35;99424.88;;;14.25;76.73
75549;BME280;64133;56.002;37.208;2023-09-19T09:06:40;99413.55;;;14.32;76.52
75549;BME280;64133;56.002;37.208;2023-09-19T09:11:45;99414.05;;;14.36;76.51
75549;BME280;64133;56.002;37.208;2023-09-19T09:16:49;99409.76;;;14.49;76.28
75549;BME280;64133;56.002;37.208;2023-09-19T09:21:54;99405.63;;;14.64;76.10
75549;BME280;64133;56.002;37.208;2023-09-19T09:26:59;99402.27;;;15.16;75.03
75549;BME280;64133;56.002;37.208;2023-09-19T09:32:22;99391.64;;;14.94;74.43
75549;BME280;64133;56.002;37.208;2023-09-19T09:37:26;99390.66;;;15.17;74.27
75549;BME280;64133;56.002;37.208;2023-09-19T09:42:31;99378.69;;;16.37;71.30
75549;BME280;64133;56.002;37.208;2023-09-19T09:47:43;99378.86;;;17.66;69.40
75549;BME280;64133;56.002;37.208;2023-09-19T09:52:50;99372.09;;;17.39;68.05
75549;BME280;64133;56.002;37.208;2023-09-19T09:58:17;99364.81;;;17.04;67.68
75549;BME280;64133;56.002;37.208;2023-09-19T10:03:23;99378.63;;;17.00;68.29
75549;BME280;64133;56.002;37.208;2023-09-19T10:08:27;99374.13;;;16.92;67.52
75549;BME280;64133;56.002;37.208;2023-09-19T10:13:32;99366.32;;;16.99;67.90
75549;BME280;64133;56.002;37.208;2023-09-19T10:18:37;99364.66;;;16.98;67.89
75549;BME280;64133;56.002;37.208;2023-09-19T10:23:42;99367.30;;;17.02;67.42
75549;BME280;64133;56.002;37.208;2023-09-19T10:28:48;99353.66;;;17.17;67.65
75549;BME280;64133;56.002;37.208;2023-09-19T10:33:52;99352.20;;;17.70;66.92
75549;BME280;64133;56.002;37.208;2023-09-19T10:38:57;99343.73;;;17.58;66.78
75549;BME280;64133;56.002;37.208;2023-09-19T10:44:03;99346.47;;;17.42;67.08
75549;BME280;64133;56.002;37.208;2023-09-19T10:49:08;99344.98;;;17.27;67.31
75549;BME280;64133;56.002;37.208;2023-09-19T10:54:16;99336.47;;;17.40;67.62
75549;BME280;64133;56.002;37.208;2023-09-19T10:59:20;99332.80;;;17.41;67.42
75549;BME280;64133;56.002;37.208;2023-09-19T11:04:29;99321.14;;;17.50;67.65
75549;BME280;64133;56.002;37.208;2023-09-19T11:09:47;99323.16;;;17.40;67.50
75549;BME280;64133;56.002;37.208;2023-09-19T11:14:51;99309.33;;;17.41;67.55
75549;BME280;64133;56.002;37.208;2023-09-19T11:20:26;99301.01;;;17.44;67.34
75549;BME280;64133;56.002;37.208;2023-09-19T11:25:43;99305.61;;;17.58;67.51
75549;BME280;64133;56.002;37.208;2023-09-19T11:30:51;99308.22;;;17.82;66.72
75549;BME280;64133;56.002;37.208;2023-09-19T11:36:04;99300.20;;;17.87;66.59
75549;BME280;64133;56.002;37.208;2023-09-19T11:46:54;99285.64;;;18.74;65.15
75549;BME280;64133;56.002;37.208;2023-09-19T11:51:59;99285.01;;;18.72;65.45
75549;BME280;64133;56.002;37.208;2023-09-19T11:57:04;99281.13;;;18.75;65.33
75549;BME280;64133;56.002;37.208;2023-09-19T12:02:09;99274.30;;;18.76;65.92
75549;BME280;64133;56.002;37.208;2023-09-19T12:07:14;99265.73;;;19.99;63.76
75549;BME280;64133;56.002;37.208;2023-09-19T12:12:21;99261.07;;;19.72;63.91
75549;BME280;64133;56.002;37.208;2023-09-19T12:17:35;99257.03;;;20.12;63.05
75549;BME280;64133;56.002;37.208;2023-09-19T12:22:43;99250.08;;;20.07;62.93
75549;BME280;64133;56.002;37.208;2023-09-19T12:27:48;99246.19;;;19.99;62.91
75549;BME280;64133;56.002;37.208;2023-09-19T12:32:52;99237.25;;;19.81;63.28
75549;BME280;64133;56.002;37.208;2023-09-19T12:37:57;99243.11;;;19.91;63.11
75549;BME280;64133;56.002;37.208;2023-09-19T12:43:04;99232.89;;;20.16;62.83
75549;BME280;64133;56.002;37.208;2023-09-19T12:48:22;99233.91;;;20.26;62.44
75549;BME280;64133;56.002;37.208;2023-09-19T12:53:27;99229.89;;;20.58;62.18
75549;BME280;64133;56.002;37.208;2023-09-19T12:58:32;99228.11;;;20.22;62.23
75549;BME280;64133;56.002;37.208;2023-09-19T13:03:37;99220.91;;;20.33;62.45
75549;BME280;64133;56.002;37.208;2023-09-19T13:08:41;99217.31;;;19.83;63.56
75549;BME280;64133;56.002;37.208;2023-09-19T13:13:47;99216.48;;;19.94;63.70
75549;BME280;64133;56.002;37.208;2023-09-19T13:18:52;99207.88;;;20.73;62.64
75549;BME280;64133;56.002;37.208;2023-09-19T13:23:56;99209.40;;;21.00;61.68
75549;BME280;64133;56.002;37.208;2023-09-19T13:29:01;99204.70;;;20.42;63.04
75549;BME280;64133;56.002;37.208;2023-09-19T13:34:06;99186.99;;;20.41;62.75
75549;BME280;64133;56.002;37.208;2023-09-19T13:39:10;99189.88;;;20.61;62.66
75549;BME280;64133;56.002;37.208;2023-09-19T13:44:16;99189.77;;;21.10;61.25
75549;BME280;64133;56.002;37.208;2023-09-19T13:49:20;99186.91;;;21.12;61.01
75549;BME280;64133;56.002;37.208;2023-09-19T13:54:25;99176.06;;;21.09;61.15
75549;BME280;64133;56.002;37.208;2023-09-19T13:59:30;99162.86;;;21.25;61.31
75549;BME280;64133;56.002;37.208;2023-09-19T14:04:34;99169.14;;;21.28;60.90
75549;BME280;64133;56.002;37.208;2023-09-19T14:09:39;99161.92;;;21.46;60.61
75549;BME280;64133;56.002;37.208;2023-09-19T14:14:44;99152.78;;;21.51;60.64
75549;BME280;64133;56.002;37.208;2023-09-19T14:19:49;99152.09;;;21.36;60.63
75549;BME280;64133;56.002;37.208;2023-09-19T14:24:54;99145.70;;;21.37;60.94
75549;BME280;64133;56.002;37.208;2023-09-19T14:29:58;99145.66;;;21.54;60.57
75549;BME280;64133;56.002;37.208;2023-09-19T14:35:03;99152.36;;;22.11;60.49
75549;BME280;64133;56.002;37.208;2023-09-19T14:40:10;99142.09;;;22.21;60.93
75549;BME280;64133;56.002;37.208;2023-09-19T14:45:15;99138.42;;;22.71;61.27
75549;BME280;64133;56.002;37.208;2023-09-19T14:50:20;99138.36;;;23.56;60.86
75549;BME280;64133;56.002;37.208;2023-09-19T14:55:25;99144.63;;;24.63;58.98
75549;BME280;64133;56.002;37.208;2023-09-19T15:00:30;99147.97;;;24.33;57.03
75549;BME280;64133;56.002;37.208;2023-09-19T15:05:35;99140.92;;;22.73;58.79
75549;BME280;64133;56.002;37.208;2023-09-19T15:10:39;99142.59;;;21.33;59.88
75549;BME280;64133;56.002;37.208;2023-09-19T15:15:44;99137.08;;;20.65;60.84
75549;BME280;64133;56.002;37.208;2023-09-19T15:20:49;99136.41;;;20.56;61.09
75549;BME280;64133;56.002;37.208;2023-09-19T15:25:54;99136.73;;;20.36;61.06
75549;BME280;64133;56.002;37.208;2023-09-19T15:31:04;99134.61;;;20.14;61.59
75549;BME280;64133;56.002;37.208;2023-09-19T15:36:10;99128.34;;;19.68;62.16
75549;BME280;64133;56.002;37.208;2023-09-19T15:41:14;99132.05;;;19.27;62.90
75549;BME280;64133;56.002;37.208;2023-09-19T15:46:19;99136.81;;;19.21;63.14
75549;BME280;64133;56.002;37.208;2023-09-19T15:51:23;99133.76;;;18.98;63.21
75549;BME280;64133;56.002;37.208;2023-09-19T15:56:28;99128.88;;;18.87;63.73
75549;BME280;64133;56.002;37.208;2023-09-19T16:01:33;99124.02;;;18.72;63.81
75549;BME280;64133;56.002;37.208;2023-09-19T16:06:39;99128.42;;;18.65;63.96
75549;BME280;64133;56.002;37.208;2023-09-19T16:11:44;99124.91;;;18.49;64.73
75549;BME280;64133;56.002;37.208;2023-09-19T16:16:49;99123.91;;;18.31;65.13
75549;BME280;64133;56.002;37.208;2023-09-19T16:21:54;99129.27;;;18.13;65.60
75549;BME280;64133;56.002;37.208;2023-09-19T16:26:58;99129.27;;;17.94;65.90
75549;BME280;64133;56.002;37.208;2023-09-19T16:32:04;99131.05;;;17.70;66.29
75549;BME280;64133;56.002;37.208;2023-09-19T16:37:08;99136.41;;;17.66;66.53
75549;BME280;64133;56.002;37.208;2023-09-19T16:42:13;99136.59;;;17.65;66.50
75549;BME280;64133;56.002;37.208;2023-09-19T16:47:18;99141.17;;;17.52;66.62
75549;BME280;64133;56.002;37.208;2023-09-19T16:52:28;99144.25;;;17.32;66.97
75549;BME280;64133;56.002;37.208;2023-09-19T16:57:36;99148.31;;;17.24;67.27
75549;BME280;64133;56.002;37.208;2023-09-19T17:02:47;99144.19;;;17.14;67.38
75549;BME280;64133;56.002;37.208;2023-09-19T17:07:48;99146.06;;;17.01;67.60
75549;BME280;64133;56.002;37.208;2023-09-19T17:12:54;99150.91;;;16.93;67.73
75549;BME280;64133;56.002;37.208;2023-09-19T17:17:59;99149.98;;;16.78;68.12
75549;BME280;64133;56.002;37.208;2023-09-19T17:23:04;99150.81;;;16.74;68.18
75549;BME280;64133;56.002;37.208;2023-09-19T17:28:09;99147.31;;;16.66;68.25
75549;BME280;64133;56.002;37.208;2023-09-19T17:33:14;99148.34;;;16.48;68.46
75549;BME280;64133;56.002;37.208;2023-09-19T17:38:18;99143.21;;;16.39;68.52
75549;BME280;64133;56.002;37.208;2023-09-19T17:43:23;99145.88;;;16.39;68.27
75549;BME280;64133;56.002;37.208;2023-09-19T17:48:28;99143.54;;;16.36;68.27
75549;BME280;64133;56.002;37.208;2023-09-19T17:53:33;99154.86;;;16.33;68.25
75549;BME280;64133;56.002;37.208;2023-09-19T17:58:38;99151.52;;;16.27;68.30
75549;BME280;64133;56.002;37.208;2023-09-19T18:03:42;99157.84;;;16.26;68.34
75549;BME280;64133;56.002;37.208;2023-09-19T18:08:47;99151.88;;;16.24;68.46
75549;BME280;64133;56.002;37.208;2023-09-19T18:13:52;99149.04;;;16.18;68.68
75549;BME280;64133;56.002;37.208;2023-09-19T18:19:07;99146.05;;;16.13;68.87
75549;BME280;64133;56.002;37.208;2023-09-19T18:24:08;99148.38;;;16.03;69.22
75549;BME280;64133;56.002;37.208;2023-09-19T18:29:13;99144.07;;;15.98;69.41
75549;BME280;64133;56.002;37.208;2023-09-19T18:34:18;99143.38;;;15.92;69.67
75549;BME280;64133;56.002;37.208;2023-09-19T18:39:22;99137.42;;;15.86;69.87
75549;BME280;64133;56.002;37.208;2023-09-19T18:44:28;99140.72;;;15.80;70.07
75549;BME280;64133;56.002;37.208;2023-09-19T18:49:32;99144.04;;;15.74;70.24
75549;BME280;64133;56.002;37.208;2023-09-19T18:54:37;99144.20;;;15.68;70.36
75549;BME280;64133;56.002;37.208;2023-09-19T18:59:43;99142.16;;;15.62;70.48
75549;BME280;64133;56.002;37.208;2023-09-19T19:04:47;99145.48;;;15.56;70.75
75549;BME280;64133;56.002;37.208;2023-09-19T19:09:52;99142.13;;;15.54;70.91
75549;BME280;64133;56.002;37.208;2023-09-19T19:14:56;99136.00;;;15.53;70.95
75549;BME280;64133;56.002;37.208;2023-09-19T19:20:01;99133.83;;;15.49;71.03
75549;BME280;64133;56.002;37.208;2023-09-19T19:25:07;99131.17;;;15.45;71.36
75549;BME280;64133;56.002;37.208;2023-09-19T19:30:12;99133.17;;;15.43;71.51
75549;BME280;64133;56.002;37.208;2023-09-19T19:35:17;99129.50;;;15.40;71.62
75549;BME280;64133;56.002;37.208;2023-09-19T19:40:22;99128.16;;;15.36;71.79
75549;BME280;64133;56.002;37.208;2023-09-19T19:50:40;99120.67;;;15.27;72.15
75549;BME280;64133;56.002;37.208;2023-09-19T19:55:45;99048.52;;;14.65;72.35
75549;BME280;64133;56.002;37.208;2023-09-19T20:00:53;99118.11;;;15.05;72.77
75549;BME280;64133;56.002;37.208;2023-09-19T20:05:55;99123.77;;;15.02;72.81
75549;BME280;64133;56.002;37.208;2023-09-19T20:11:03;99128.67;;;14.93;73.09
75549;BME280;64133;56.002;37.208;2023-09-19T20:16:08;99125.34;;;14.87;73.36
75549;BME280;64133;56.002;37.208;2023-09-19T20:21:12;99126.31;;;14.81;73.54
75549;BME280;64133;56.002;37.208;2023-09-19T20:26:17;99131.27;;;14.76;73.73
75549;BME280;64133;56.002;37.208;2023-09-19T20:31:22;99127.41;;;14.71;73.84
75549;BME280;64133;56.002;37.208;2023-09-19T20:36:26;99129.57;;;14.67;73.93
75549;BME280;64133;56.002;37.208;2023-09-19T20:41:31;99130.02;;;14.63;74.05
75549;BME280;64133;56.002;37.208;2023-09-19T20:46:39;99122.89;;;14.59;74.06
75549;BME280;64133;56.002;37.208;2023-09-19T20:51:43;99125.16;;;14.54;74.04
75549;BME280;64133;56.002;37.208;2023-09-19T20:56:48;99117.55;;;14.51;74.13
75549;BME280;64133;56.002;37.208;2023-09-19T21:01:53;99117.81;;;14.48;74.17
75549;BME280;64133;56.002;37.208;2023-09-19T21:06:57;99114.34;;;14.47;74.10
75549;BME280;64133;56.002;37.208;2023-09-19T21:12:02;99120.13;;;14.47;74.01
75549;BME280;64133;56.002;37.208;2023-09-19T21:17:07;99111.13;;;14.40;74.15
75549;BME280;64133;56.002;37.208;2023-09-19T21:22:12;99111.30;;;14.38;74.16
75549;BME280;64133;56.002;37.208;2023-09-19T21:27:17;99110.12;;;14.32;74.17
75549;BME280;64133;56.002;37.208;2023-09-19T21:32:22;99104.78;;;14.28;74.27
75549;BME280;64133;56.002;37.208;2023-09-19T21:37:27;99099.13;;;14.27;74.17
75549;BME280;64133;56.002;37.208;2023-09-19T21:42:31;99095.29;;;14.22;74.26
75549;BME280;64133;56.002;37.208;2023-09-19T21:47:36;99104.73;;;14.20;74.31
75549;BME280;64133;56.002;37.208;2023-09-19T21:52:41;99097.77;;;14.19;74.29
75549;BME280;64133;56.002;37.208;2023-09-19T21:57:45;99100.75;;;14.20;74.27
75549;BME280;64133;56.002;37.208;2023-09-19T22:02:50;99096.09;;;14.18;74.24
75549;BME280;64133;56.002;37.208;2023-09-19T22:07:56;99096.09;;;14.18;74.07
75549;BME280;64133;56.002;37.208;2023-09-19T22:13:00;99102.37;;;14.17;74.17
75549;BME280;64133;56.002;37.208;2023-09-19T22:18:05;99101.36;;;14.14;74.16
75549;BME280;64133;56.002;37.208;2023-09-19T22:23:10;99103.17;;;14.14;74.21
75549;BME280;64133;56.002;37.208;2023-09-19T22:28:15;99098.64;;;14.06;74.32
75549;BME280;64133;56.002;37.208;2023-09-19T22:33:19;99100.92;;;14.01;74.42
75549;BME280;64133;56.002;37.208;2023-09-19T22:38:24;99097.95;;;14.00;74.47
75549;BME280;64133;56.002;37.208;2023-09-19T22:43:30;99094.77;;;13.96;74.39
75549;BME280;64133;56.002;37.208;2023-09-19T22:48:36;99087.48;;;13.94;74.40
75549;BME280;64133;56.002;37.208;2023-09-19T22:53:41;99088.61;;;13.92;74.43
75549;BME280;64133;56.002;37.208;2023-09-19T22:58:46;99090.40;;;13.87;74.43
75549;BME280;64133;56.002;37.208;2023-09-19T23:03:51;99084.91;;;13.80;74.56
75549;BME280;64133;56.002;37.208;2023-09-19T23:08:56;99097.45;;;13.78;74.52
75549;BME280;64133;56.002;37.208;2023-09-19T23:14:00;99092.61;;;13.74;74.59
75549;BME280;64133;56.002;37.208;2023-09-19T23:19:05;99090.25;;;13.71;74.60
75549;BME280;64133;56.002;37.208;2023-09-19T23:24:10;99092.41;;;13.67;74.62
75549;BME280;64133;56.002;37.208;2023-09-19T23:29:15;99090.55;;;13.64;74.66
75549;BME280;64133;56.002;37.208;2023-09-19T23:34:20;99080.55;;;13.57;74.82
75549;BME280;64133;56.002;37.208;2023-09-19T23:39:25;99086.83;;;13.56;74.91
75549;BME280;64133;56.002;37.208;2023-09-19T23:44:29;99081.37;;;13.54;74.82
75549;BME280;64133;56.002;37.208;2023-09-19T23:49:34;99080.05;;;13.54;74.81
75549;BME280;64133;56.002;37.208;2023-09-19T23:54:39;99078.31;;;13.49;74.86
75549;BME280;64133;56.002;37.208;2023-09-19T23:59:44;99072.16;;;13.44;74.92
